Time;durP1;ratioP1;P1;durP2;ratioP2;P2;SDS_P1;SDS_P2;PMS_P1;PMS_P2;Temp;Humidity;BMP_temperature;BMP_pressure;BME280_temperature;BME280_humidity;BME280_pressure;Samples;Min_cycle;Max_cycle;Signal;HPM_P1;HPM_P2
2023/08/26 00:01:15;;;;;;;0.10;0.10;;;17.40;99.90;;;;;;5107331;28;20644;-90
2023/08/26 00:03:41;;;;;;;0.10;0.10;;;17.30;99.90;;;;;;5095670;27;20191;-89
2023/08/26 00:06:06;;;;;;;0.10;0.10;;;17.40;99.90;;;;;;5123660;27;20534;-90
2023/08/26 00:08:32;;;;;;;0.10;0.10;;;17.30;99.90;;;;;;5123737;27;20187;-89
2023/08/26 00:10:58;;;;;;;0.10;0.10;;;17.30;99.90;;;;;;5096243;28;20195;-89
2023/08/26 00:13:24;;;;;;;0.10;0.10;;;17.30;99.90;;;;;;5087342;28;20176;-88
2023/08/26 00:15:49;;;;;;;0.10;0.10;;;17.30;99.90;;;;;;5122222;27;20481;-89
2023/08/26 00:18:15;;;;;;;0.10;0.10;;;17.40;99.90;;;;;;5108068;28;20190;-90
2023/08/26 00:20:40;;;;;;;0.10;0.10;;;17.30;99.90;;;;;;5089980;28;20811;-90
2023/08/26 00:23:06;;;;;;;0.10;0.10;;;17.30;99.90;;;;;;5106801;27;20187;-90
2023/08/26 00:25:32;;;;;;;0.10;0.10;;;17.30;99.90;;;;;;5110372;27;20203;-89
2023/08/26 00:27:57;;;;;;;0.10;0.10;;;17.30;99.90;;;;;;5087846;28;20632;-89
2023/08/26 00:30:24;;;;;;;0.10;0.10;;;17.30;99.90;;;;;;5107237;27;20189;-89
2023/08/26 00:32:50;;;;;;;0.10;0.10;;;17.40;99.90;;;;;;5109062;27;20213;-89
2023/08/26 00:35:16;;;;;;;0.10;0.10;;;17.40;99.90;;;;;;5115067;27;20433;-89
2023/08/26 00:37:42;;;;;;;0.10;0.10;;;17.40;99.90;;;;;;5110672;27;20453;-89
2023/08/26 00:40:08;;;;;;;0.10;0.10;;;17.30;99.90;;;;;;5110182;28;20224;-90
2023/08/26 00:42:37;;;;;;;0.10;0.10;;;17.30;99.90;;;;;;5106987;28;20474;-89
2023/08/26 00:45:04;;;;;;;0.10;0.10;;;17.30;99.90;;;;;;5106056;28;20459;-89
2023/08/26 00:47:30;;;;;;;0.10;0.10;;;17.30;99.90;;;;;;5088592;28;20458;-89
2023/08/26 00:49:55;;;;;;;0.10;0.10;;;17.30;99.90;;;;;;5100675;27;20490;-90
2023/08/26 00:52:21;;;;;;;0.10;0.10;;;17.30;99.90;;;;;;5096328;28;20218;-89
2023/08/26 00:54:46;;;;;;;0.10;0.10;;;17.20;99.90;;;;;;5119814;27;20177;-89
2023/08/26 00:57:12;;;;;;;0.10;0.10;;;17.20;99.90;;;;;;5107121;28;20216;-88
2023/08/26 00:59:39;;;;;;;0.10;0.10;;;17.20;99.90;;;;;;5108451;28;20384;-89
2023/08/26 01:02:05;;;;;;;0.10;0.10;;;17.20;99.90;;;;;;5105106;28;20187;-90
2023/08/26 01:04:30;;;;;;;0.10;0.10;;;17.30;99.90;;;;;;5105708;28;20468;-89
2023/08/26 01:06:56;;;;;;;0.10;0.10;;;17.30;99.90;;;;;;5109681;28;20222;-89
2023/08/26 01:09:22;;;;;;;0.10;0.10;;;17.20;99.90;;;;;;5107786;27;20192;-89
2023/08/26 01:11:58;;;;;;;0.10;0.10;;;17.20;99.90;;;;;;5104859;28;20284;-89
2023/08/26 01:14:35;;;;;;;0.10;0.10;;;17.30;99.90;;;;;;5102674;27;20898;-89
2023/08/26 01:17:03;;;;;;;0.10;0.10;;;17.30;99.90;;;;;;5088088;28;20553;-90
2023/08/26 01:19:38;;;;;;;0.10;0.10;;;17.30;99.90;;;;;;5098339;27;20464;-90
2023/08/26 01:22:06;;;;;;;0.10;0.10;;;17.20;99.90;;;;;;5090349;28;20434;-89
2023/08/26 01:24:32;;;;;;;0.10;0.10;;;17.20;99.90;;;;;;5092846;28;20437;-89
2023/08/26 01:26:58;;;;;;;0.10;0.10;;;17.30;99.90;;;;;;5090065;28;20451;-89
2023/08/26 01:29:25;;;;;;;0.10;0.10;;;17.30;99.90;;;;;;5108632;28;20191;-89
2023/08/26 01:32:02;;;;;;;0.10;0.10;;;17.20;99.90;;;;;;5109494;28;20429;-89
2023/08/26 01:34:32;;;;;;;0.10;0.10;;;17.20;99.90;;;;;;5107568;28;20437;-89
2023/08/26 01:36:59;;;;;;;0.10;0.10;;;17.20;99.90;;;;;;5108565;28;20983;-89
2023/08/26 01:39:25;;;;;;;0.10;0.10;;;17.30;99.90;;;;;;5125604;28;20444;-89
2023/08/26 01:41:51;;;;;;;0.10;0.10;;;17.30;99.90;;;;;;5106625;28;20520;-90
2023/08/26 01:44:18;;;;;;;0.10;0.10;;;17.30;99.90;;;;;;5106894;28;20441;-89
2023/08/26 01:46:44;;;;;;;0.10;0.10;;;17.30;99.90;;;;;;5105874;28;20187;-89
2023/08/26 01:49:10;;;;;;;0.10;0.10;;;17.40;99.90;;;;;;5107632;28;20457;-89
2023/08/26 01:51:36;;;;;;;0.10;0.10;;;17.40;99.90;;;;;;5108370;28;20422;-89
2023/08/26 01:54:03;;;;;;;0.10;0.10;;;17.40;99.90;;;;;;5104547;28;20282;-89
2023/08/26 01:56:29;;;;;;;0.10;0.10;;;17.40;99.90;;;;;;5082940;28;20308;-89
2023/08/26 01:58:54;;;;;;;0.10;0.10;;;17.40;99.90;;;;;;5101823;28;20926;-89
2023/08/26 02:01:20;;;;;;;0.10;0.10;;;17.40;99.90;;;;;;5095481;28;20271;-89
2023/08/26 02:03:45;;;;;;;0.10;0.10;;;17.40;99.90;;;;;;5102556;28;20636;-89
2023/08/26 02:06:11;;;;;;;0.10;0.10;;;17.40;99.90;;;;;;5104053;28;20541;-89
2023/08/26 02:08:36;;;;;;;0.10;0.10;;;17.30;99.90;;;;;;5090824;28;20271;-89
2023/08/26 02:11:02;;;;;;;0.10;0.10;;;17.40;99.90;;;;;;5098118;28;20192;-90
2023/08/26 02:13:27;;;;;;;0.10;0.10;;;17.40;99.90;;;;;;5081814;28;20184;-90
2023/08/26 02:15:55;;;;;;;0.10;0.10;;;17.40;99.90;;;;;;5101881;28;20577;-91
2023/08/26 02:18:21;;;;;;;0.10;0.10;;;17.40;99.90;;;;;;5098727;28;20192;-91
2023/08/26 02:20:48;;;;;;;0.10;0.10;;;17.40;99.90;;;;;;5098076;28;20434;-91
2023/08/26 02:23:14;;;;;;;0.10;0.10;;;17.30;99.90;;;;;;5101435;28;20484;-89
2023/08/26 02:25:40;;;;;;;0.10;0.10;;;17.30;99.90;;;;;;5102898;28;21002;-90
2023/08/26 02:28:05;;;;;;;0.10;0.10;;;17.30;99.90;;;;;;5102339;28;20450;-91
2023/08/26 02:30:31;;;;;;;0.10;0.10;;;17.30;99.90;;;;;;5106216;28;20253;-91
2023/08/26 02:32:57;;;;;;;0.10;0.10;;;17.30;99.90;;;;;;5100800;28;20236;-90
2023/08/26 02:35:23;;;;;;;0.10;0.10;;;17.30;99.90;;;;;;5098707;28;20181;-90
2023/08/26 02:37:48;;;;;;;0.10;0.10;;;17.30;99.90;;;;;;5108294;28;20257;-89
2023/08/26 02:40:14;;;;;;;0.10;0.10;;;17.30;99.90;;;;;;5101606;28;21033;-90
2023/08/26 02:42:39;;;;;;;0.10;0.10;;;17.30;99.90;;;;;;5099038;28;20582;-89
2023/08/26 02:45:05;;;;;;;0.10;0.10;;;17.30;99.90;;;;;;5117553;27;20191;-89
2023/08/26 02:47:31;;;;;;;0.10;0.10;;;17.30;99.90;;;;;;5107043;27;20551;-89
2023/08/26 02:49:57;;;;;;;0.10;0.10;;;17.30;99.90;;;;;;5110403;28;20446;-89
2023/08/26 02:52:22;;;;;;;0.10;0.10;;;17.30;99.90;;;;;;5113398;28;20228;-90
2023/08/26 02:54:48;;;;;;;0.10;0.10;;;17.30;99.90;;;;;;5112183;28;20234;-88
2023/08/26 02:57:14;;;;;;;0.10;0.10;;;17.30;99.90;;;;;;5107535;28;20314;-90
2023/08/26 02:59:40;;;;;;;0.10;0.10;;;17.40;99.90;;;;;;5103868;28;20168;-90
2023/08/26 03:02:06;;;;;;;0.10;0.10;;;17.30;99.90;;;;;;5114917;27;20793;-89
2023/08/26 03:04:33;;;;;;;0.10;0.10;;;17.30;99.90;;;;;;5111497;27;20288;-90
2023/08/26 03:06:58;;;;;;;0.10;0.10;;;17.30;99.90;;;;;;5112543;27;20490;-89
2023/08/26 03:09:27;;;;;;;0.10;0.10;;;17.30;99.90;;;;;;5105843;28;21166;-90
2023/08/26 03:11:57;;;;;;;0.10;0.10;;;17.40;99.90;;;;;;5106380;27;20279;-91
2023/08/26 03:14:23;;;;;;;0.10;0.10;;;17.40;99.90;;;;;;5110796;28;20434;-90
2023/08/26 03:16:48;;;;;;;0.10;0.10;;;17.40;99.90;;;;;;5104883;28;20817;-90
2023/08/26 03:19:14;;;;;;;0.10;0.10;;;17.30;99.90;;;;;;5111826;28;20550;-89
2023/08/26 03:21:40;;;;;;;0.10;0.10;;;17.30;99.90;;;;;;5111745;28;20184;-90
2023/08/26 03:24:05;;;;;;;0.10;0.10;;;17.40;99.90;;;;;;5099064;27;20181;-90
2023/08/26 03:26:31;;;;;;;0.10;0.10;;;17.30;99.90;;;;;;5105393;27;20184;-90
2023/08/26 03:28:56;;;;;;;0.10;0.10;;;17.30;99.90;;;;;;5117589;27;21033;-89
2023/08/26 03:31:22;;;;;;;0.10;0.10;;;17.30;99.90;;;;;;5110593;28;20668;-90
2023/08/26 03:33:47;;;;;;;0.10;0.10;;;17.30;99.90;;;;;;5108696;28;20244;-90
2023/08/26 03:36:13;;;;;;;0.10;0.10;;;17.30;99.90;;;;;;5120685;27;20215;-91
2023/08/26 03:38:38;;;;;;;0.10;0.10;;;17.30;99.90;;;;;;5101818;27;20274;-90
2023/08/26 03:41:05;;;;;;;0.10;0.10;;;17.30;99.90;;;;;;5110022;28;20236;-91
2023/08/26 03:43:31;;;;;;;0.10;0.10;;;17.20;99.90;;;;;;5107603;28;20240;-90
2023/08/26 03:45:56;;;;;;;0.10;0.10;;;17.30;99.90;;;;;;5107786;28;20454;-91
2023/08/26 03:48:22;;;;;;;0.10;0.10;;;17.20;99.90;;;;;;5108107;27;20191;-90
2023/08/26 03:50:52;;;;;;;0.10;0.10;;;17.20;99.90;;;;;;5104026;27;20184;-90
2023/08/26 03:53:18;;;;;;;0.10;0.10;;;17.20;99.90;;;;;;5104241;28;20188;-88
2023/08/26 03:55:44;;;;;;;0.10;0.10;;;17.20;99.90;;;;;;5109531;28;20473;-90
2023/08/26 03:58:10;;;;;;;0.10;0.10;;;17.10;99.90;;;;;;5098036;28;20201;-91
2023/08/26 04:00:36;;;;;;;0.10;0.10;;;17.10;99.90;;;;;;5104522;28;20430;-90
2023/08/26 04:03:02;;;;;;;0.10;0.10;;;17.10;99.90;;;;;;5110374;28;20470;-91
2023/08/26 04:05:27;;;;;;;0.10;0.10;;;17.10;99.90;;;;;;5092274;28;20505;-90
2023/08/26 04:07:53;;;;;;;0.10;0.10;;;17.10;99.90;;;;;;5104820;28;20193;-89
2023/08/26 04:10:18;;;;;;;0.10;0.10;;;17.10;99.90;;;;;;5107995;27;20238;-89
2023/08/26 04:12:44;;;;;;;0.10;0.10;;;17.10;99.90;;;;;;5111089;27;20188;-90
2023/08/26 04:15:09;;;;;;;0.10;0.10;;;17.00;99.90;;;;;;5106777;28;20600;-89
2023/08/26 04:17:35;;;;;;;0.10;0.10;;;17.10;99.90;;;;;;5118008;27;20615;-90
2023/08/26 04:20:01;;;;;;;0.10;0.10;;;17.00;99.90;;;;;;5096085;27;20203;-91
2023/08/26 04:22:27;;;;;;;0.10;0.10;;;17.00;99.90;;;;;;5109101;28;20554;-89
2023/08/26 04:24:53;;;;;;;0.10;0.10;;;16.90;99.90;;;;;;5108252;27;20171;-89
2023/08/26 04:27:18;;;;;;;0.10;0.10;;;17.00;99.90;;;;;;5111323;27;20445;-87
2023/08/26 04:29:43;;;;;;;0.10;0.10;;;17.00;99.90;;;;;;5104245;28;20181;-88
2023/08/26 04:32:09;;;;;;;0.10;0.10;;;17.00;99.90;;;;;;5089890;28;20219;-91
2023/08/26 04:34:35;;;;;;;0.10;0.10;;;17.00;99.90;;;;;;5110312;28;20274;-89
2023/08/26 04:37:00;;;;;;;0.10;0.10;;;17.00;99.90;;;;;;5090648;28;20254;-91
2023/08/26 04:39:26;;;;;;;0.10;0.10;;;17.00;99.90;;;;;;5107787;28;20966;-89
2023/08/26 04:41:51;;;;;;;0.10;0.10;;;17.00;99.90;;;;;;5105824;28;20224;-89
2023/08/26 04:44:17;;;;;;;0.10;0.10;;;17.00;99.90;;;;;;5108228;27;20187;-91
2023/08/26 04:46:43;;;;;;;0.10;0.10;;;17.00;99.90;;;;;;5112305;27;20656;-90
2023/08/26 04:49:09;;;;;;;0.10;0.10;;;17.10;99.90;;;;;;5091352;28;20234;-89
2023/08/26 04:51:34;;;;;;;0.10;0.10;;;17.10;99.90;;;;;;5107443;28;20442;-90
2023/08/26 04:54:00;;;;;;;0.10;0.10;;;17.00;99.90;;;;;;5120581;27;20254;-90
2023/08/26 04:56:27;;;;;;;0.10;0.10;;;17.00;99.90;;;;;;5109268;28;20655;-88
2023/08/26 04:58:52;;;;;;;0.10;0.10;;;17.10;99.90;;;;;;5109904;27;20183;-90
2023/08/26 05:01:18;;;;;;;0.10;0.10;;;17.10;99.90;;;;;;5102955;28;21188;-90
2023/08/26 05:03:43;;;;;;;0.10;0.10;;;17.10;99.90;;;;;;5124389;27;20253;-89
2023/08/26 05:06:09;;;;;;;0.10;0.10;;;17.10;99.90;;;;;;5104525;28;20202;-89
2023/08/26 05:08:34;;;;;;;0.10;0.10;;;17.10;99.90;;;;;;5100897;28;20267;-89
2023/08/26 05:11:00;;;;;;;0.10;0.10;;;17.10;99.90;;;;;;5107532;27;20215;-89
2023/08/26 05:13:26;;;;;;;0.10;0.10;;;17.10;99.90;;;;;;5090583;28;20207;-89
2023/08/26 05:15:51;;;;;;;0.10;0.10;;;17.00;99.90;;;;;;5090312;28;20702;-90
2023/08/26 05:18:18;;;;;;;0.10;0.10;;;17.10;99.90;;;;;;5112053;27;20438;-90
2023/08/26 05:20:44;;;;;;;0.10;0.10;;;17.10;99.90;;;;;;5109874;28;20183;-90
2023/08/26 05:23:11;;;;;;;0.10;0.10;;;17.10;99.90;;;;;;5107344;28;20466;-90
2023/08/26 05:25:36;;;;;;;0.10;0.10;;;17.10;99.90;;;;;;5094967;27;20439;-89
2023/08/26 05:28:04;;;;;;;0.10;0.10;;;17.10;99.90;;;;;;5107763;28;20441;-87
2023/08/26 05:30:30;;;;;;;0.10;0.10;;;17.10;99.90;;;;;;5083303;27;20290;-90
2023/08/26 05:32:55;;;;;;;0.10;0.10;;;17.20;99.90;;;;;;5103509;28;20496;-94
2023/08/26 05:35:21;;;;;;;0.10;0.10;;;17.20;99.90;;;;;;5104080;28;20445;-96
2023/08/26 05:37:47;;;;;;;0.10;0.10;;;17.30;99.90;;;;;;5105609;27;20240;-89
2023/08/26 05:40:13;;;;;;;0.10;0.10;;;17.30;99.90;;;;;;5105588;28;20216;-93
2023/08/26 05:42:39;;;;;;;0.10;0.10;;;17.40;99.90;;;;;;5091503;28;20191;-93
2023/08/26 05:45:06;;;;;;;0.10;0.10;;;17.40;99.90;;;;;;5110322;28;20426;-90
2023/08/26 05:47:31;;;;;;;0.10;0.10;;;17.40;99.90;;;;;;5110819;28;20499;-94
2023/08/26 05:50:00;;;;;;;0.10;0.10;;;17.50;99.90;;;;;;5111126;28;20426;-91
2023/08/26 05:52:25;;;;;;;0.10;0.10;;;17.50;99.90;;;;;;5090748;28;20753;-94
2023/08/26 05:54:51;;;;;;;0.10;0.10;;;17.50;99.90;;;;;;5103917;28;20438;-90
2023/08/26 05:57:17;;;;;;;0.10;0.10;;;17.50;99.90;;;;;;5111616;28;20200;-95
2023/08/26 05:59:42;;;;;;;0.10;0.10;;;17.50;99.90;;;;;;5108757;28;20188;-93
2023/08/26 06:02:08;;;;;;;0.10;0.10;;;17.50;99.90;;;;;;5107924;28;20192;-92
2023/08/26 06:04:34;;;;;;;0.10;0.10;;;17.50;99.90;;;;;;5090312;28;20185;-91
2023/08/26 06:06:59;;;;;;;0.10;0.10;;;17.50;99.90;;;;;;5109781;28;20440;-92
2023/08/26 06:09:25;;;;;;;0.10;0.10;;;17.50;99.90;;;;;;5106514;28;20747;-94
2023/08/26 06:11:51;;;;;;;0.10;0.10;;;17.60;99.90;;;;;;5110590;28;20177;-91
2023/08/26 06:14:16;;;;;;;0.10;0.10;;;17.70;99.90;;;;;;5088089;28;20181;-91
2023/08/26 06:16:42;;;;;;;0.10;0.10;;;17.70;99.90;;;;;;5107908;28;20242;-93
2023/08/26 06:19:08;;;;;;;0.10;0.10;;;17.80;99.90;;;;;;5110862;28;20172;-91
2023/08/26 06:21:34;;;;;;;0.10;0.10;;;17.90;99.90;;;;;;5126829;27;20216;-93
2023/08/26 06:24:00;;;;;;;0.10;0.10;;;17.90;99.90;;;;;;5112240;28;20478;-91
2023/08/26 06:26:25;;;;;;;0.10;0.10;;;17.90;99.90;;;;;;5115677;28;20176;-93
2023/08/26 06:28:51;;;;;;;0.10;0.10;;;17.80;99.90;;;;;;5089146;28;20255;-96
2023/08/26 06:31:17;;;;;;;0.10;0.10;;;17.80;99.90;;;;;;5086899;28;20177;-95
2023/08/26 06:33:43;;;;;;;0.10;0.10;;;17.90;99.90;;;;;;5101073;28;20441;-92
2023/08/26 06:36:09;;;;;;;0.10;0.10;;;17.90;99.90;;;;;;5107642;27;20208;-89
2023/08/26 06:38:34;;;;;;;0.10;0.10;;;17.90;99.90;;;;;;5119538;27;20442;-92
2023/08/26 06:41:00;;;;;;;0.10;0.10;;;17.90;99.90;;;;;;5110002;27;20224;-95
2023/08/26 06:43:27;;;;;;;0.10;0.10;;;17.90;99.90;;;;;;5115108;28;20237;-96
2023/08/26 06:45:52;;;;;;;0.10;0.10;;;18.10;99.90;;;;;;5109979;28;20184;-95
2023/08/26 06:48:18;;;;;;;0.10;0.10;;;18.30;99.90;;;;;;5114698;28;20449;-94
2023/08/26 06:50:48;;;;;;;0.10;0.10;;;18.40;99.90;;;;;;5114770;28;20192;-94
2023/08/26 06:53:20;;;;;;;0.10;0.10;;;18.30;99.90;;;;;;5114322;28;20184;-93
2023/08/26 06:55:46;;;;;;;0.10;0.00;;;18.40;99.90;;;;;;5099693;28;20420;-96
2023/08/26 06:58:12;;;;;;;0.10;0.10;;;18.40;99.90;;;;;;5094655;28;20477;-95
2023/08/26 07:00:37;;;;;;;0.10;0.10;;;18.30;99.90;;;;;;5116757;27;20462;-95
2023/08/26 07:03:03;;;;;;;0.10;0.10;;;18.30;99.90;;;;;;5109916;28;20211;-95
2023/08/26 07:05:28;;;;;;;0.10;0.10;;;18.20;99.90;;;;;;5113153;28;20204;-96
2023/08/26 07:07:54;;;;;;;0.10;0.10;;;18.20;99.90;;;;;;5086650;28;20195;-95
2023/08/26 07:10:19;;;;;;;0.10;0.10;;;18.20;99.90;;;;;;5116707;28;20176;-88
2023/08/26 07:12:45;;;;;;;0.10;0.10;;;18.20;99.90;;;;;;5115565;28;20184;-95
2023/08/26 07:15:10;;;;;;;0.10;0.10;;;18.30;99.90;;;;;;5105981;28;20572;-95
2023/08/26 07:17:36;;;;;;;0.10;0.10;;;18.50;99.90;;;;;;5111310;28;22007;-95
2023/08/26 07:20:02;;;;;;;0.10;0.10;;;18.50;99.90;;;;;;5113337;28;20198;-93
2023/08/26 07:22:27;;;;;;;0.10;0.10;;;18.50;99.90;;;;;;5103993;28;20188;-93
2023/08/26 07:24:53;;;;;;;0.10;0.10;;;18.60;99.90;;;;;;5097305;27;20311;-92
2023/08/26 07:27:18;;;;;;;0.10;0.10;;;18.60;99.90;;;;;;5107345;27;20193;-90
2023/08/26 07:29:44;;;;;;;0.10;0.10;;;18.60;99.90;;;;;;5113296;27;20836;-93
2023/08/26 07:32:10;;;;;;;0.10;0.10;;;18.50;99.90;;;;;;5091660;28;20689;-91
2023/08/26 07:34:35;;;;;;;0.10;0.10;;;18.50;99.90;;;;;;5108590;28;20188;-90
2023/08/26 07:37:01;;;;;;;0.10;0.10;;;18.60;99.90;;;;;;5111572;28;20224;-91
2023/08/26 07:39:28;;;;;;;0.10;0.10;;;18.70;99.90;;;;;;5093838;28;20191;-93
2023/08/26 07:41:54;;;;;;;0.10;0.10;;;18.80;99.90;;;;;;5094859;28;20289;-90
2023/08/26 07:44:20;;;;;;;0.10;0.10;;;19.00;99.90;;;;;;5105961;28;20818;-89
2023/08/26 07:46:46;;;;;;;0.10;0.10;;;19.10;99.90;;;;;;5108118;28;20185;-91
2023/08/26 07:49:12;;;;;;;0.10;0.10;;;19.30;99.90;;;;;;5104454;28;20440;-91
2023/08/26 07:51:37;;;;;;;0.10;0.10;;;19.30;99.90;;;;;;5099065;28;20188;-90
2023/08/26 07:54:03;;;;;;;0.10;0.10;;;19.10;99.90;;;;;;5108472;28;20828;-90
2023/08/26 07:56:29;;;;;;;0.10;0.10;;;18.80;99.90;;;;;;5108974;28;20299;-92
2023/08/26 07:58:54;;;;;;;0.10;0.10;;;18.70;99.90;;;;;;5095016;28;20208;-90
2023/08/26 08:01:20;;;;;;;0.10;0.10;;;18.80;99.90;;;;;;5107157;27;20184;-89
2023/08/26 08:03:46;;;;;;;0.10;0.10;;;19.10;99.90;;;;;;5092739;28;20192;-90
2023/08/26 08:06:11;;;;;;;0.10;0.10;;;19.20;99.90;;;;;;5111316;28;20434;-91
2023/08/26 08:08:37;;;;;;;0.10;0.10;;;19.20;99.90;;;;;;5099530;28;20275;-93
2023/08/26 08:11:03;;;;;;;0.10;0.10;;;19.30;99.90;;;;;;5095992;28;20221;-89
2023/08/26 08:13:29;;;;;;;0.10;0.00;;;19.30;99.90;;;;;;5108521;28;20699;-89
2023/08/26 08:15:54;;;;;;;0.10;0.10;;;19.60;99.90;;;;;;5111782;27;20549;-93
2023/08/26 08:18:20;;;;;;;0.10;0.10;;;19.40;99.90;;;;;;5112278;28;20267;-91
2023/08/26 08:20:46;;;;;;;0.10;0.10;;;19.50;99.90;;;;;;5089560;28;20185;-90
2023/08/26 08:23:11;;;;;;;0.10;0.00;;;19.60;99.90;;;;;;5107295;28;20275;-91
2023/08/26 08:25:37;;;;;;;0.10;0.00;;;19.90;99.90;;;;;;5111155;28;20247;-91
2023/08/26 08:28:02;;;;;;;0.10;0.10;;;20.00;99.90;;;;;;5110303;28;20207;-91
2023/08/26 08:30:28;;;;;;;0.10;0.00;;;20.00;99.90;;;;;;5112343;28;20180;-87
2023/08/26 08:32:54;;;;;;;0.10;0.00;;;19.90;99.90;;;;;;5102800;28;20223;-94
2023/08/26 08:35:19;;;;;;;0.10;0.10;;;19.90;99.90;;;;;;5098182;28;20256;-91
2023/08/26 08:37:45;;;;;;;0.10;0.10;;;19.80;99.90;;;;;;5112073;28;20295;-91
2023/08/26 08:40:12;;;;;;;0.10;0.00;;;20.10;99.90;;;;;;5090248;28;20325;-89
2023/08/26 08:42:40;;;;;;;0.10;0.00;;;20.10;99.90;;;;;;5087724;28;20510;-90
2023/08/26 08:45:06;;;;;;;0.10;0.00;;;20.30;99.90;;;;;;5082787;28;20532;-89
2023/08/26 08:47:33;;;;;;;0.10;0.00;;;20.40;99.90;;;;;;5087786;28;20473;-90
2023/08/26 08:50:00;;;;;;;0.10;0.00;;;20.70;99.90;;;;;;5088361;28;20446;-94
2023/08/26 08:52:27;;;;;;;0.10;0.00;;;20.80;99.90;;;;;;5094514;28;20545;-93
2023/08/26 08:54:53;;;;;;;0.10;0.00;;;20.90;99.90;;;;;;5087006;28;20914;-96
2023/08/26 08:57:23;;;;;;;0.10;0.10;;;21.10;99.90;;;;;;5089741;28;20497;-93
2023/08/26 08:59:49;;;;;;;0.10;0.00;;;21.00;99.90;;;;;;5088922;28;20181;-95
2023/08/26 09:02:15;;;;;;;0.10;0.00;;;21.10;99.90;;;;;;5091272;28;20449;-92
2023/08/26 09:04:41;;;;;;;0.10;0.00;;;21.50;99.90;;;;;;5090391;28;20552;-90
2023/08/26 09:07:09;;;;;;;0.10;0.00;;;21.70;99.90;;;;;;5090326;28;20656;-88
2023/08/26 09:09:35;;;;;;;0.10;0.00;;;21.70;99.90;;;;;;5091411;28;20408;-90
2023/08/26 09:12:01;;;;;;;0.10;0.00;;;21.40;99.90;;;;;;5092335;28;20450;-92
2023/08/26 09:14:27;;;;;;;0.10;0.00;;;21.10;99.90;;;;;;5090720;28;20173;-91
2023/08/26 09:16:54;;;;;;;0.10;0.00;;;21.00;99.90;;;;;;5093113;28;20482;-94
2023/08/26 09:19:19;;;;;;;0.10;0.00;;;21.40;99.90;;;;;;5078453;28;20177;-94
2023/08/26 09:21:46;;;;;;;0.10;0.00;;;21.40;99.90;;;;;;5092447;28;20826;-94
2023/08/26 09:24:13;;;;;;;0.10;0.00;;;21.60;99.90;;;;;;5082456;28;20242;-92
2023/08/26 09:26:39;;;;;;;0.10;0.00;;;22.10;99.90;;;;;;5090935;28;20447;-89
2023/08/26 09:29:16;;;;;;;0.10;0.00;;;21.90;99.90;;;;;;5089121;28;20442;-93
2023/08/26 09:31:49;;;;;;;0.10;0.10;;;22.10;99.90;;;;;;5092368;28;20577;-91
2023/08/26 09:34:32;;;;;;;0.10;0.00;;;22.20;99.90;;;;;;5091162;28;20419;-94
2023/08/26 09:36:58;;;;;;;0.03;0.00;;;22.00;99.90;;;;;;5086734;28;20559;-90
2023/08/26 09:39:25;;;;;;;0.10;0.10;;;22.30;99.90;;;;;;5086678;28;20430;-93
2023/08/26 09:41:53;;;;;;;0.10;0.00;;;22.30;99.90;;;;;;5103341;28;20474;-96
2023/08/26 09:44:21;;;;;;;0.10;0.00;;;22.70;99.90;;;;;;5095186;28;20452;-96
2023/08/26 09:46:47;;;;;;;0.10;0.00;;;23.00;99.90;;;;;;5110151;28;20542;-94
2023/08/26 09:49:13;;;;;;;0.10;0.00;;;22.70;99.90;;;;;;5103221;28;20470;-94
2023/08/26 09:51:48;;;;;;;0.10;0.00;;;23.00;99.90;;;;;;5106529;28;20652;-90
2023/08/26 09:54:21;;;;;;;0.10;0.00;;;22.20;99.90;;;;;;5111281;28;20517;-90
2023/08/26 09:56:48;;;;;;;0.10;0.00;;;22.30;99.90;;;;;;5115832;28;20474;-94
2023/08/26 09:59:15;;;;;;;0.10;0.00;;;22.30;99.90;;;;;;5117461;27;20428;-94
2023/08/26 10:01:42;;;;;;;0.10;0.10;;;22.80;99.90;;;;;;5110595;28;20438;-91
2023/08/26 10:04:09;;;;;;;0.10;0.00;;;23.20;99.90;;;;;;5116374;28;20467;-95
2023/08/26 10:06:55;;;;;;;0.10;0.00;;;23.30;99.90;;;;;;5116289;28;20985;-92
2023/08/26 10:09:39;;;;;;;0.10;0.00;;;23.40;99.90;;;;;;5111914;28;20422;-91
2023/08/26 10:12:13;;;;;;;0.10;0.00;;;23.30;99.90;;;;;;5112541;28;20448;-91
2023/08/26 10:14:41;;;;;;;0.10;0.00;;;23.60;99.90;;;;;;5108812;28;20460;-88
2023/08/26 10:17:13;;;;;;;0.10;0.00;;;23.60;99.90;;;;;;5108745;28;20473;-86
2023/08/26 10:19:40;;;;;;;0.10;0.00;;;23.50;99.90;;;;;;5101123;27;20475;-87
2023/08/26 10:22:09;;;;;;;0.10;0.00;;;23.80;99.90;;;;;;5094911;28;20447;-86
2023/08/26 10:24:36;;;;;;;0.10;0.00;;;24.20;99.90;;;;;;5094056;28;20478;-86
2023/08/26 10:27:02;;;;;;;0.00;0.00;;;24.00;99.90;;;;;;5085076;28;20464;-86
2023/08/26 10:29:29;;;;;;;0.00;0.00;;;24.10;99.90;;;;;;5092294;28;20430;-87
2023/08/26 10:31:55;;;;;;;0.00;0.00;;;24.20;99.90;;;;;;5088084;28;20863;-87
2023/08/26 10:34:20;;;;;;;0.00;0.00;;;24.20;99.90;;;;;;5116843;27;20449;-87
2023/08/26 10:36:48;;;;;;;0.00;0.00;;;24.50;99.90;;;;;;5115038;27;20230;-87
2023/08/26 10:39:16;;;;;;;0.00;0.00;;;24.90;99.90;;;;;;5090260;27;20188;-87
2023/08/26 10:42:17;;;;;;;0.10;0.00;;;24.20;99.90;;;;;;5076144;28;20499;-87
2023/08/26 10:45:10;;;;;;;0.10;0.00;;;24.40;99.90;;;;;;5080564;28;20930;-87
2023/08/26 10:47:51;;;;;;;0.00;0.00;;;24.10;99.90;;;;;;5072575;28;20450;-87
2023/08/26 10:50:22;;;;;;;0.10;0.00;;;23.80;99.90;;;;;;5081229;28;20463;-87
2023/08/26 10:52:58;;;;;;;0.10;0.00;;;24.10;99.90;;;;;;5079363;28;20482;-86
2023/08/26 10:55:25;;;;;;;0.10;0.00;;;24.90;99.90;;;;;;5070541;28;20451;-87
2023/08/26 10:58:01;;;;;;;0.10;0.07;;;24.90;99.90;;;;;;5064795;28;20473;-89
2023/08/26 11:00:27;;;;;;;0.10;0.00;;;25.50;99.90;;;;;;5077459;28;20449;-86
2023/08/26 11:02:54;;;;;;;0.10;0.00;;;25.50;99.90;;;;;;5075946;28;20546;-86
2023/08/26 11:05:20;;;;;;;0.10;0.00;;;25.60;99.90;;;;;;5088202;28;20234;-87
2023/08/26 11:07:47;;;;;;;0.10;0.00;;;25.90;99.90;;;;;;5069384;28;20820;-86
2023/08/26 11:10:30;;;;;;;0.10;0.00;;;26.10;99.90;;;;;;5064686;28;20445;-92
2023/08/26 11:12:56;;;;;;;0.10;0.00;;;26.30;99.90;;;;;;5070618;28;20436;-86
2023/08/26 11:15:22;;;;;;;0.10;0.00;;;26.10;99.90;;;;;;5059290;28;20452;-84
2023/08/26 11:17:48;;;;;;;0.10;0.10;;;26.60;99.90;;;;;;5060565;28;20245;-86
2023/08/26 11:20:17;;;;;;;0.00;0.00;;;27.00;99.90;;;;;;5066799;28;20438;-86
2023/08/26 11:22:44;;;;;;;0.10;0.00;;;27.00;99.90;;;;;;5069919;28;20485;-86
2023/08/26 11:25:14;;;;;;;0.10;0.00;;;27.40;99.90;;;;;;5070890;28;20428;-85
2023/08/26 11:27:39;;;;;;;0.10;0.00;;;27.20;99.90;;;;;;5067939;28;20444;-85
2023/08/26 11:30:10;;;;;;;0.10;0.00;;;27.50;99.90;;;;;;5072864;28;20432;-86
2023/08/26 11:32:36;;;;;;;0.10;0.00;;;27.20;99.90;;;;;;5060394;28;20189;-86
2023/08/26 11:35:04;;;;;;;0.10;0.00;;;27.40;99.90;;;;;;5081883;28;20447;-86
2023/08/26 11:37:43;;;;;;;0.10;0.00;;;26.60;99.90;;;;;;5064382;28;20991;-86
2023/08/26 11:40:10;;;;;;;0.00;0.00;;;25.90;99.90;;;;;;5078306;28;20470;-86
2023/08/26 11:42:36;;;;;;;0.07;0.00;;;26.30;99.90;;;;;;5100891;28;20441;-87
2023/08/26 11:45:02;;;;;;;0.10;0.00;;;26.90;99.90;;;;;;5102168;28;20450;-86
2023/08/26 11:47:28;;;;;;;0.10;0.00;;;27.30;99.90;;;;;;5102992;28;20257;-85
2023/08/26 11:49:57;;;;;;;0.10;0.00;;;27.90;99.90;;;;;;5107184;27;20465;-85
2023/08/26 11:52:36;;;;;;;0.10;0.00;;;27.80;99.90;;;;;;5085330;27;20203;-85
2023/08/26 11:55:03;;;;;;;0.10;0.00;;;28.10;99.90;;;;;;5105879;27;20429;-85
2023/08/26 11:57:32;;;;;;;0.10;0.00;;;27.80;99.90;;;;;;5108343;27;21059;-90
2023/08/26 12:00:09;;;;;;;0.10;0.00;;;28.20;99.90;;;;;;5086101;28;20471;-85
2023/08/26 12:02:35;;;;;;;0.10;0.00;;;28.40;99.90;;;;;;5106476;27;20772;-85
2023/08/26 12:05:01;;;;;;;0.10;0.00;;;28.30;99.90;;;;;;5121592;27;20453;-84
2023/08/26 12:07:29;;;;;;;0.10;0.00;;;28.30;99.90;;;;;;5107861;28;21086;-85
2023/08/26 12:09:55;;;;;;;0.10;0.00;;;27.60;99.90;;;;;;5107970;28;20442;-88
2023/08/26 12:12:21;;;;;;;0.10;0.00;;;26.70;99.90;;;;;;5104679;28;20454;-90
2023/08/26 12:14:48;;;;;;;0.10;0.00;;;26.60;99.90;;;;;;5075669;28;20441;-84
2023/08/26 12:17:14;;;;;;;0.10;0.00;;;26.50;99.90;;;;;;5080799;28;20489;-85
2023/08/26 12:19:41;;;;;;;0.00;0.00;;;26.00;99.90;;;;;;5085468;28;20437;-85
2023/08/26 12:22:08;;;;;;;0.00;0.00;;;25.60;99.90;;;;;;5106000;27;20892;-89
2023/08/26 12:24:37;;;;;;;0.00;0.00;;;24.50;99.90;;;;;;5095923;27;20441;-87
2023/08/26 12:27:10;;;;;;;0.03;0.00;;;24.10;99.90;;;;;;5104875;27;20544;-88
2023/08/26 12:29:39;;;;;;;0.10;0.10;;;24.30;99.90;;;;;;5091140;27;20440;-89
2023/08/26 12:32:05;;;;;;;0.00;0.00;;;24.40;99.90;;;;;;5098120;28;20487;-88
2023/08/26 12:34:32;;;;;;;0.10;0.00;;;24.00;99.90;;;;;;5104281;27;20444;-90
2023/08/26 12:36:58;;;;;;;0.10;0.00;;;23.90;99.90;;;;;;5105056;28;20481;-89
2023/08/26 12:39:27;;;;;;;0.10;0.00;;;24.00;99.90;;;;;;5090180;28;20483;-87
2023/08/26 12:41:54;;;;;;;0.00;0.00;;;24.10;99.90;;;;;;5083203;28;20877;-86
2023/08/26 12:44:22;;;;;;;0.00;0.00;;;25.00;99.90;;;;;;5107804;28;20440;-87
2023/08/26 12:46:47;;;;;;;0.00;0.00;;;25.60;99.90;;;;;;5101633;28;21091;-87